createdAt,value
2019-02-15T00:01:05.367Z,90.20
2019-02-15T00:03:34.298Z,90.20
2019-02-15T00:06:09.620Z,90.20
2019-02-15T00:08:38.610Z,90.20
2019-02-15T00:11:08.115Z,90.20
2019-02-15T00:13:42.428Z,90.20
2019-02-15T00:16:11.487Z,90.20
2019-02-15T00:18:53.004Z,90.20
2019-02-15T00:21:27.854Z,90.10
2019-02-15T00:23:56.817Z,90.10
2019-02-15T00:26:25.796Z,90.10
2019-02-15T00:28:54.773Z,90.10
2019-02-15T00:31:24.033Z,90.00
2019-02-15T00:33:53.136Z,90.00
2019-02-15T00:36:22.163Z,90.10
2019-02-15T00:38:51.092Z,90.00
2019-02-15T00:41:20.031Z,90.00
2019-02-15T00:43:48.996Z,90.10
2019-02-15T00:46:28.978Z,90.00
2019-02-15T00:48:58.682Z,90.00
2019-02-15T00:51:52.632Z,90.00
2019-02-15T00:54:27.514Z,90.00
2019-02-15T00:57:21.851Z,90.10
2019-02-15T01:00:03.370Z,90.00
2019-02-15T01:02:50.829Z,90.00
2019-02-15T01:05:37.574Z,90.00
2019-02-15T01:08:17.044Z,90.00
2019-02-15T01:10:51.961Z,90.10
2019-02-15T01:13:31.145Z,90.00
2019-02-15T01:15:59.128Z,90.10
2019-02-15T01:18:28.090Z,90.00
2019-02-15T01:20:57.466Z,90.00
2019-02-15T01:24:05.753Z,90.10
2019-02-15T01:26:45.861Z,90.10
2019-02-15T01:29:36.208Z,90.40
2019-02-15T01:32:23.858Z,90.10
2019-02-15T01:34:59.329Z,90.20
2019-02-15T01:37:55.092Z,90.10
2019-02-15T01:40:43.709Z,90.10
2019-02-15T01:43:39.992Z,90.10
2019-02-15T01:46:24.908Z,90.10
2019-02-15T01:48:53.887Z,90.20
2019-02-15T01:51:30.808Z,90.20
2019-02-15T01:53:59.801Z,90.20
2019-02-15T01:56:28.885Z,90.20
2019-02-15T01:58:58.082Z,90.20
2019-02-15T02:01:28.617Z,90.20
2019-02-15T02:03:57.468Z,90.20
2019-02-15T02:06:27.283Z,90.30
2019-02-15T02:08:56.132Z,90.30
2019-02-15T02:11:25.152Z,90.30
2019-02-15T02:13:54.280Z,90.40
2019-02-15T02:16:23.387Z,90.40
2019-02-15T02:18:52.500Z,90.40
2019-02-15T02:21:21.983Z,90.40
2019-02-15T02:23:51.147Z,90.40
2019-02-15T02:26:20.190Z,90.30
2019-02-15T02:28:49.074Z,90.30
2019-02-15T02:31:42.614Z,90.30
2019-02-15T02:34:11.962Z,90.20
2019-02-15T02:36:51.292Z,90.20
2019-02-15T02:39:20.475Z,90.20
2019-02-15T02:41:49.546Z,90.20
2019-02-15T02:44:18.591Z,90.30
2019-02-15T02:46:47.665Z,90.30
2019-02-15T02:49:17.464Z,90.40
2019-02-15T02:51:46.512Z,90.40
2019-02-15T02:54:15.391Z,90.50
2019-02-15T02:56:44.396Z,90.50
2019-02-15T02:59:13.560Z,90.50
2019-02-15T03:01:42.814Z,90.60
2019-02-15T03:04:11.765Z,90.60
2019-02-15T03:06:40.956Z,90.60
2019-02-15T03:09:10.288Z,90.60
2019-02-15T03:11:39.203Z,90.60
2019-02-15T03:14:11.655Z,90.70
2019-02-15T03:16:39.661Z,90.60
2019-02-15T03:19:08.684Z,90.70
2019-02-15T03:21:37.906Z,90.70
2019-02-15T03:24:06.776Z,90.70
2019-02-15T03:26:35.970Z,90.70
2019-02-15T03:29:04.954Z,90.60
2019-02-15T03:31:33.858Z,90.50
2019-02-15T03:34:02.757Z,90.50
2019-02-15T03:36:53.836Z,90.50
2019-02-15T03:39:35.494Z,90.50
2019-02-15T03:42:04.566Z,90.40
2019-02-15T03:44:33.546Z,90.40
2019-02-15T03:47:02.910Z,90.30
2019-02-15T03:49:31.761Z,90.30
2019-02-15T03:52:01.059Z,90.30
2019-02-15T03:58:10.842Z,90.40
2019-02-15T04:00:39.792Z,90.30
2019-02-15T04:03:08.788Z,90.40
2019-02-15T04:05:37.753Z,90.40
2019-02-15T04:08:06.774Z,90.40
2019-02-15T04:10:36.041Z,90.40
2019-02-15T04:13:04.918Z,90.40
2019-02-15T04:15:33.964Z,90.40
2019-02-15T04:18:03.039Z,90.50
2019-02-15T04:20:32.073Z,90.50
2019-02-15T04:23:01.134Z,90.60
2019-02-15T04:25:30.351Z,90.50
2019-02-15T04:28:10.969Z,90.60
2019-02-15T04:30:57.620Z,91.00
2019-02-15T04:33:26.745Z,90.70
2019-02-15T04:35:55.996Z,90.70
2019-02-15T04:38:25.296Z,90.80
2019-02-15T04:40:54.379Z,90.80
2019-02-15T04:43:28.690Z,90.90
2019-02-15T04:45:57.907Z,91.00
2019-02-15T04:48:31.809Z,91.00
2019-02-15T04:51:00.752Z,91.00
2019-02-15T04:53:29.784Z,91.00
2019-02-15T04:55:58.729Z,91.00
2019-02-15T04:58:27.659Z,91.00
2019-02-15T05:00:56.850Z,91.00
2019-02-15T05:03:26.055Z,91.10
2019-02-15T05:05:55.462Z,91.00
2019-02-15T05:08:30.941Z,91.00
2019-02-15T05:11:01.824Z,91.10
2019-02-15T05:13:31.084Z,91.20
2019-02-15T05:16:36.874Z,91.20
2019-02-15T05:19:06.160Z,91.20
2019-02-15T05:21:35.405Z,91.10
2019-02-15T05:24:04.693Z,91.10
2019-02-15T05:26:45.785Z,91.10
2019-02-15T05:29:14.888Z,91.10
2019-02-15T05:31:57.024Z,91.00
2019-02-15T05:34:26.069Z,91.00
2019-02-15T05:36:54.951Z,91.00
2019-02-15T05:39:24.680Z,91.00
2019-02-15T05:41:53.891Z,91.00
2019-02-15T05:44:22.801Z,91.00
2019-02-15T05:46:52.059Z,90.90
2019-02-15T05:49:29.959Z,91.00
2019-02-15T05:51:59.152Z,91.00
2019-02-15T05:54:28.492Z,90.90
2019-02-15T05:56:57.481Z,90.90
2019-02-15T05:59:53.581Z,90.90
2019-02-15T06:02:22.515Z,90.90
2019-02-15T06:04:52.115Z,90.90
2019-02-15T06:07:21.261Z,90.90
2019-02-15T06:09:50.244Z,91.00
2019-02-15T06:12:21.259Z,91.00
2019-02-15T06:14:50.688Z,90.90
2019-02-15T06:17:19.545Z,90.80
2019-02-15T06:19:49.035Z,90.90
2019-02-15T06:22:17.906Z,90.90
2019-02-15T06:24:46.847Z,90.80
2019-02-15T06:27:16.305Z,90.90
2019-02-15T06:29:45.364Z,90.80
2019-02-15T06:32:14.415Z,90.90
2019-02-15T06:34:43.621Z,90.90
2019-02-15T06:37:18.183Z,91.00
2019-02-15T06:39:48.047Z,91.00
2019-02-15T06:42:17.773Z,90.80
2019-02-15T06:44:47.747Z,90.70
2019-02-15T06:51:04.219Z,90.80
2019-02-15T06:54:14.368Z,90.80
2019-02-15T07:00:41.819Z,90.80
2019-02-15T07:03:33.155Z,90.90
2019-02-15T07:09:43.863Z,91.00
2019-02-15T07:12:16.033Z,91.00
2019-02-15T07:14:53.085Z,91.00
2019-02-15T07:20:00.358Z,91.10
2019-02-15T07:26:15.638Z,91.20
2019-02-15T07:29:05.742Z,91.20
2019-02-15T07:32:21.183Z,91.20
2019-02-15T07:39:29.831Z,91.10
2019-02-15T07:42:00.911Z,91.10
2019-02-15T07:44:30.802Z,91.10
2019-02-15T07:47:00.384Z,91.10
2019-02-15T07:53:11.215Z,91.10
2019-02-15T07:55:40.962Z,91.00
2019-02-15T07:58:10.288Z,91.00
2019-02-15T08:00:39.190Z,91.00
2019-02-15T08:03:08.521Z,91.10
2019-02-15T08:05:45.308Z,91.00
2019-02-15T08:09:06.282Z,91.00
2019-02-15T08:11:36.637Z,91.00
2019-02-15T08:14:14.355Z,91.00
2019-02-15T08:16:38.703Z,90.90
2019-02-15T08:19:08.199Z,90.90
2019-02-15T08:21:55.984Z,91.00
2019-02-15T08:24:25.728Z,91.00
2019-02-15T08:26:55.740Z,91.00
2019-02-15T08:29:25.607Z,91.00
2019-02-15T08:31:55.226Z,91.00
2019-02-15T08:34:37.378Z,90.90
2019-02-15T08:37:06.543Z,90.80
2019-02-15T08:39:45.082Z,90.70
2019-02-15T08:42:16.505Z,90.70
2019-02-15T08:44:48.663Z,90.70
2019-02-15T08:47:52.304Z,90.70
2019-02-15T08:51:25.472Z,90.80
2019-02-15T08:54:03.313Z,90.90
2019-02-15T08:56:32.728Z,90.70
2019-02-15T08:59:02.138Z,90.50
2019-02-15T09:01:31.523Z,90.40
2019-02-15T09:04:00.907Z,90.40
2019-02-15T09:06:29.927Z,90.20
2019-02-15T09:08:59.786Z,90.10
2019-02-15T09:11:28.708Z,90.00
2019-02-15T09:13:58.274Z,90.00
2019-02-15T09:16:27.219Z,90.00
2019-02-15T09:18:56.138Z,90.00
2019-02-15T09:21:25.013Z,89.70
2019-02-15T09:24:06.468Z,89.30
2019-02-15T09:26:35.396Z,89.40
2019-02-15T09:29:07.695Z,89.40
2019-02-15T09:31:36.940Z,89.30
2019-02-15T09:34:05.956Z,89.20
2019-02-15T09:36:34.979Z,89.10
2019-02-15T09:39:05.301Z,88.80
2019-02-15T09:41:34.386Z,88.50
2019-02-15T09:44:03.642Z,88.40
2019-02-15T09:46:32.504Z,88.30
2019-02-15T09:49:01.489Z,88.20
2019-02-15T09:51:30.352Z,88.20
2019-02-15T09:56:34.022Z,88.00
2019-02-15T09:59:34.377Z,87.80
2019-02-15T10:02:03.234Z,87.80
2019-02-15T10:04:32.175Z,87.50
2019-02-15T10:07:01.122Z,87.50
2019-02-15T10:09:31.208Z,87.50
2019-02-15T10:12:02.245Z,87.60
2019-02-15T10:14:31.358Z,87.60
2019-02-15T10:17:00.480Z,87.50
2019-02-15T10:19:29.676Z,87.20
2019-02-15T10:21:58.545Z,87.30
2019-02-15T10:24:27.520Z,88.10
2019-02-15T10:26:56.423Z,87.40
2019-02-15T10:29:25.390Z,87.30
2019-02-15T10:31:54.387Z,87.20
2019-02-15T10:34:23.256Z,87.40
2019-02-15T10:36:52.382Z,87.50
2019-02-15T10:39:21.909Z,87.50
2019-02-15T10:41:50.810Z,86.30
2019-02-15T10:44:26.175Z,86.00
2019-02-15T10:46:54.916Z,86.00
2019-02-15T10:49:24.276Z,85.80
2019-02-15T10:51:53.471Z,85.60
2019-02-15T10:54:22.601Z,85.40
2019-02-15T10:56:52.959Z,85.20
2019-02-15T10:59:22.528Z,85.00
2019-02-15T11:05:32.815Z,84.80
2019-02-15T11:08:11.485Z,84.40
2019-02-15T11:13:15.420Z,84.60
2019-02-15T11:15:44.670Z,84.50
2019-02-15T11:18:13.682Z,84.40
2019-02-15T11:20:42.687Z,84.20
2019-02-15T11:23:12.137Z,83.90
2019-02-15T11:25:41.305Z,84.00
2019-02-15T11:28:10.460Z,83.60
2019-02-15T11:30:39.802Z,83.80
2019-02-15T11:33:08.918Z,83.80
2019-02-15T11:35:38.169Z,83.70
2019-02-15T11:38:07.753Z,84.00
2019-02-15T11:40:37.225Z,84.00
2019-02-15T11:43:06.914Z,84.00
2019-02-15T11:45:36.711Z,83.90
2019-02-15T11:48:17.946Z,83.90
2019-02-15T11:50:47.976Z,83.70
2019-02-15T11:53:20.418Z,83.80
2019-02-15T11:55:56.501Z,83.70
2019-02-15T11:58:36.953Z,83.60
2019-02-15T12:01:07.074Z,83.30
2019-02-15T12:03:36.272Z,83.10
2019-02-15T12:06:07.797Z,83.00
2019-02-15T12:08:49.500Z,82.90
2019-02-15T12:11:20.174Z,82.70
2019-02-15T12:13:50.839Z,82.50
2019-02-15T12:16:20.574Z,82.50
2019-02-15T12:18:50.156Z,82.30
2019-02-15T12:21:19.471Z,82.20
2019-02-15T12:24:03.248Z,82.20
2019-02-15T12:26:32.953Z,81.90
2019-02-15T12:29:01.995Z,81.50
2019-02-15T12:31:31.069Z,81.30
2019-02-15T12:34:00.295Z,81.00
2019-02-15T12:36:29.596Z,81.10
2019-02-15T12:38:59.586Z,80.80
2019-02-15T12:41:42.821Z,80.70
2019-02-15T12:44:12.131Z,80.70
2019-02-15T12:46:41.624Z,80.20
2019-02-15T12:49:11.075Z,80.20
2019-02-15T12:51:40.493Z,80.40
2019-02-15T12:54:09.654Z,80.30
2019-02-15T12:56:54.893Z,80.40
2019-02-15T12:59:24.135Z,79.60
2019-02-15T13:01:53.319Z,79.80
2019-02-15T13:04:22.188Z,79.50
2019-02-15T13:06:51.154Z,79.50
2019-02-15T13:09:20.314Z,79.30
2019-02-15T13:12:08.568Z,79.50
2019-02-15T13:14:37.756Z,79.40
2019-02-15T13:17:06.715Z,78.50
2019-02-15T13:19:36.018Z,78.30
2019-02-15T13:22:05.209Z,78.50
2019-02-15T13:24:34.453Z,78.40
2019-02-15T13:27:03.621Z,78.30
2019-02-15T13:29:32.836Z,78.00
2019-02-15T13:32:02.342Z,78.40
2019-02-15T13:34:32.063Z,77.90
2019-02-15T13:37:01.178Z,77.80
2019-02-15T13:39:30.380Z,77.10
2019-02-15T13:41:59.764Z,77.10
2019-02-15T13:44:29.257Z,77.40
2019-02-15T13:46:58.468Z,77.40
2019-02-15T13:49:28.138Z,77.40
2019-02-15T13:51:59.600Z,77.60
2019-02-15T13:54:27.947Z,77.00
2019-02-15T13:56:56.923Z,77.10
2019-02-15T13:59:26.284Z,77.10
2019-02-15T14:01:55.299Z,77.00
2019-02-15T14:04:24.313Z,76.70
2019-02-15T14:06:57.225Z,77.50
2019-02-15T14:09:26.300Z,77.10
2019-02-15T14:12:03.022Z,77.00
2019-02-15T14:14:32.391Z,77.00
2019-02-15T14:17:01.658Z,77.20
2019-02-15T14:19:31.181Z,77.20
2019-02-15T14:22:00.431Z,76.70
2019-02-15T14:24:29.439Z,76.10
2019-02-15T14:26:58.588Z,76.00
2019-02-15T14:29:27.463Z,76.10
2019-02-15T14:34:31.588Z,75.70
2019-02-15T14:37:00.817Z,75.90
2019-02-15T14:39:30.099Z,76.30
2019-02-15T14:41:59.492Z,76.40
2019-02-15T14:44:28.662Z,75.90
2019-02-15T14:46:58.446Z,75.80
2019-02-15T14:49:27.663Z,75.80
2019-02-15T14:51:57.103Z,75.40
2019-02-15T14:54:26.337Z,74.70
2019-02-15T14:57:27.868Z,74.20
2019-02-15T14:59:56.744Z,73.90
2019-02-15T15:02:26.157Z,73.80
2019-02-15T15:04:55.582Z,74.10
2019-02-15T15:07:24.697Z,74.40
2019-02-15T15:09:54.112Z,74.50
2019-02-15T15:12:29.355Z,74.60
2019-02-15T15:14:58.384Z,74.50
2019-02-15T15:17:27.381Z,74.70
2019-02-15T15:19:56.581Z,74.30
2019-02-15T15:22:25.480Z,74.40
2019-02-15T15:24:54.735Z,74.30
2019-02-15T15:27:23.983Z,74.30
2019-02-15T15:29:52.890Z,74.30
2019-02-15T15:32:23.037Z,74.30
2019-02-15T15:34:51.935Z,74.50
2019-02-15T15:37:20.862Z,74.50
2019-02-15T15:39:49.755Z,74.60
2019-02-15T15:42:18.747Z,74.00
2019-02-15T15:44:47.764Z,74.40
2019-02-15T15:47:16.816Z,74.60
2019-02-15T15:49:58.672Z,74.40
2019-02-15T15:52:28.253Z,74.50
2019-02-15T15:54:57.496Z,74.10
2019-02-15T15:57:26.697Z,74.10
2019-02-15T15:59:56.061Z,74.10
2019-02-15T16:02:25.390Z,74.20
2019-02-15T16:04:54.252Z,74.00
2019-02-15T16:07:23.218Z,74.00
2019-02-15T16:09:52.223Z,73.40
2019-02-15T16:12:22.342Z,74.00
2019-02-15T16:14:53.261Z,73.60
2019-02-15T16:17:23.747Z,74.10
2019-02-15T16:19:52.752Z,74.10
2019-02-15T16:22:22.269Z,73.90
2019-02-15T16:24:51.591Z,74.00
2019-02-15T16:27:21.320Z,73.90
2019-02-15T16:29:50.425Z,73.90
2019-02-15T16:32:19.539Z,73.80
2019-02-15T16:34:48.520Z,74.10
2019-02-15T16:37:17.440Z,74.10
2019-02-15T16:39:46.301Z,74.20
2019-02-15T16:42:56.686Z,73.90
2019-02-15T16:45:26.455Z,73.80
2019-02-15T16:47:55.748Z,74.00
2019-02-15T16:50:25.023Z,73.80
2019-02-15T16:52:54.230Z,73.90
2019-02-15T16:55:23.705Z,73.70
2019-02-15T17:00:28.050Z,73.80
2019-02-15T17:02:57.466Z,73.80
2019-02-15T17:05:26.572Z,73.90
2019-02-15T17:10:30.401Z,73.90
2019-02-15T17:12:59.532Z,74.00
2019-02-15T17:15:28.937Z,74.00
2019-02-15T17:18:23.400Z,74.20
2019-02-15T17:20:52.497Z,74.10
2019-02-15T17:23:27.547Z,74.10
2019-02-15T17:25:56.640Z,73.80
2019-02-15T17:28:26.151Z,73.40
2019-02-15T17:30:55.283Z,73.90
2019-02-15T17:33:24.703Z,73.90
2019-02-15T17:36:06.251Z,74.00
2019-02-15T17:38:42.787Z,74.00
2019-02-15T17:41:12.070Z,74.00
2019-02-15T17:43:41.154Z,74.00
2019-02-15T17:46:10.238Z,74.10
2019-02-15T17:48:39.369Z,74.20
2019-02-15T17:51:11.526Z,74.20
2019-02-15T17:53:40.561Z,74.20
2019-02-15T17:56:09.946Z,74.10
2019-02-15T17:58:39.136Z,74.20
2019-02-15T18:01:13.394Z,74.10
2019-02-15T18:03:42.894Z,74.10
2019-02-15T18:06:12.532Z,73.90
2019-02-15T18:08:41.841Z,73.80
2019-02-15T18:11:10.905Z,74.00
2019-02-15T18:13:39.988Z,74.00
2019-02-15T18:16:08.853Z,73.80
2019-02-15T18:18:37.841Z,73.80
2019-02-15T18:21:06.876Z,73.70
2019-02-15T18:23:35.878Z,73.70
2019-02-15T18:26:04.794Z,73.70
2019-02-15T18:31:08.383Z,73.70
2019-02-15T18:33:37.482Z,73.60
2019-02-15T18:36:06.470Z,73.70
2019-02-15T18:38:40.772Z,73.70
2019-02-15T18:41:13.568Z,73.70
2019-02-15T18:43:41.393Z,73.80
2019-02-15T18:46:10.248Z,73.90
2019-02-15T18:48:39.204Z,75.00
2019-02-15T18:51:08.299Z,75.00
2019-02-15T18:53:37.167Z,75.00
2019-02-15T18:56:06.092Z,75.10
2019-02-15T18:58:38.679Z,75.20
2019-02-15T19:01:07.613Z,75.20
2019-02-15T19:03:36.472Z,75.00
2019-02-15T19:06:05.468Z,75.00
2019-02-15T19:08:34.438Z,75.00
2019-02-15T19:11:03.788Z,75.10
2019-02-15T19:13:32.730Z,75.20
2019-02-15T19:16:01.845Z,75.20
2019-02-15T19:18:31.637Z,75.20
2019-02-15T19:21:00.628Z,75.40
2019-02-15T19:23:36.031Z,76.30
2019-02-15T19:26:18.675Z,75.50
2019-02-15T19:28:47.934Z,75.50
2019-02-15T19:31:16.902Z,75.50
2019-02-15T19:33:45.949Z,75.60
2019-02-15T19:36:27.425Z,75.50
2019-02-15T19:38:56.377Z,75.90
2019-02-15T19:41:25.312Z,75.50
2019-02-15T19:43:54.378Z,75.60
2019-02-15T19:46:23.562Z,75.70
2019-02-15T19:49:00.516Z,75.70
2019-02-15T19:51:29.629Z,75.70
2019-02-15T19:53:58.518Z,75.80
2019-02-15T19:56:27.539Z,75.70
2019-02-15T19:58:56.506Z,75.70
2019-02-15T20:01:25.630Z,75.80
2019-02-15T20:03:54.708Z,75.80
2019-02-15T20:06:23.641Z,76.00
2019-02-15T20:08:53.160Z,75.90
2019-02-15T20:11:22.336Z,76.20
2019-02-15T20:13:51.547Z,76.20
2019-02-15T20:16:20.503Z,76.30
2019-02-15T20:18:49.634Z,76.20
2019-02-15T20:21:18.509Z,76.40
2019-02-15T20:23:47.372Z,76.30
2019-02-15T20:26:16.261Z,76.40
2019-02-15T20:28:45.189Z,76.50
2019-02-15T20:31:14.293Z,76.50
2019-02-15T20:33:43.202Z,76.60
2019-02-15T20:36:12.281Z,76.30
2019-02-15T20:38:41.135Z,76.50
2019-02-15T20:41:10.346Z,76.60
2019-02-15T20:43:39.529Z,76.70
2019-02-15T20:46:09.148Z,76.60
2019-02-15T20:48:38.356Z,76.70
2019-02-15T20:51:07.629Z,76.80
2019-02-15T20:53:36.455Z,76.80
2019-02-15T20:56:08.076Z,76.80
2019-02-15T20:58:37.196Z,76.90
2019-02-15T21:01:06.164Z,76.90
2019-02-15T21:03:35.315Z,76.80
2019-02-15T21:06:05.446Z,77.00
2019-02-15T21:08:34.565Z,77.30
2019-02-15T21:11:03.727Z,77.00
2019-02-15T21:13:32.610Z,76.90
2019-02-15T21:16:17.093Z,77.00
2019-02-15T21:18:45.932Z,76.90
2019-02-15T21:21:14.788Z,76.90
2019-02-15T21:23:43.844Z,76.90
2019-02-15T21:26:12.728Z,77.00
2019-02-15T21:28:41.568Z,76.90
2019-02-15T21:31:10.558Z,76.90
2019-02-15T21:33:39.691Z,77.00
2019-02-15T21:36:08.744Z,77.10
2019-02-15T21:38:37.870Z,77.00
2019-02-15T21:41:06.842Z,77.10
2019-02-15T21:43:35.985Z,77.10
2019-02-15T21:46:05.038Z,77.10
2019-02-15T21:48:33.974Z,77.20
2019-02-15T21:51:03.048Z,77.20
2019-02-15T21:53:31.901Z,77.20
2019-02-15T21:56:00.767Z,77.30
2019-02-15T21:58:29.857Z,77.20
2019-02-15T22:00:59.058Z,77.20
2019-02-15T22:03:33.165Z,77.30
2019-02-15T22:06:02.032Z,77.40
2019-02-15T22:08:31.112Z,77.50
2019-02-15T22:10:59.959Z,77.40
2019-02-15T22:13:28.873Z,77.40
2019-02-15T22:15:57.792Z,77.40
2019-02-15T22:18:26.901Z,77.50
2019-02-15T22:20:56.835Z,77.50
2019-02-15T22:23:25.807Z,77.50
2019-02-15T22:25:54.944Z,77.50
2019-02-15T22:28:24.084Z,77.50
2019-02-15T22:30:53.089Z,77.50
2019-02-15T22:33:21.949Z,77.50
2019-02-15T22:35:50.898Z,77.60
2019-02-15T22:38:19.743Z,77.60
2019-02-15T22:40:51.192Z,78.30
2019-02-15T22:43:23.023Z,77.70
2019-02-15T22:45:52.100Z,77.70
2019-02-15T22:48:20.989Z,77.70
2019-02-15T22:50:49.990Z,77.70
2019-02-15T22:53:19.083Z,77.80
2019-02-15T22:55:48.003Z,77.80
2019-02-15T22:58:16.840Z,77.90
2019-02-15T23:00:59.036Z,77.90
2019-02-15T23:03:28.216Z,77.90
2019-02-15T23:05:57.299Z,77.80
2019-02-15T23:08:26.249Z,77.90
2019-02-15T23:10:55.225Z,77.90
2019-02-15T23:13:24.454Z,78.00
2019-02-15T23:15:54.006Z,78.00
2019-02-15T23:18:22.914Z,78.00
2019-02-15T23:20:52.093Z,78.00
2019-02-15T23:23:20.915Z,78.10
2019-02-15T23:25:49.796Z,78.20
2019-02-15T23:28:18.780Z,78.20
2019-02-15T23:30:48.089Z,78.20
2019-02-15T23:33:20.625Z,78.30
2019-02-15T23:35:49.536Z,78.60
2019-02-15T23:38:18.482Z,78.70
2019-02-15T23:40:47.676Z,78.70
2019-02-15T23:43:16.606Z,78.90
2019-02-15T23:45:45.511Z,78.90
2019-02-15T23:48:17.123Z,78.90
2019-02-15T23:50:54.293Z,78.90
2019-02-15T23:53:17.065Z,78.90
2019-02-15T23:55:46.155Z,78.90
2019-02-15T23:58:15.077Z,79.00
